createdAt,value
2017-09-24T00:00:47.500Z,86.03
2017-09-24T00:03:15.020Z,87.50
2017-09-24T00:05:42.527Z,95.07
2017-09-24T00:08:10.052Z,85.67
2017-09-24T00:10:37.554Z,87.30
2017-09-24T00:13:05.075Z,83.37
2017-09-24T00:15:32.591Z,100.50
2017-09-24T00:18:00.923Z,117.80
2017-09-24T00:20:29.429Z,96.37
2017-09-24T00:22:57.741Z,90.33
2017-09-24T00:25:25.277Z,92.80
2017-09-24T00:27:53.562Z,85.43
2017-09-24T00:30:21.835Z,73.93
2017-09-24T00:32:50.136Z,95.43
2017-09-24T00:35:17.644Z,80.67
2017-09-24T00:37:45.190Z,92.00
2017-09-24T00:40:12.696Z,79.53
2017-09-24T00:42:40.209Z,92.13
2017-09-24T00:45:07.739Z,91.63
2017-09-24T00:47:35.244Z,79.60
2017-09-24T00:50:02.767Z,73.20
2017-09-24T00:52:30.276Z,60.80
2017-09-24T00:54:58.590Z,75.97
2017-09-24T00:57:26.092Z,78.57
2017-09-24T00:59:53.614Z,75.70
2017-09-24T01:02:21.116Z,87.20
2017-09-24T01:04:48.638Z,86.30
2017-09-24T01:07:16.148Z,88.57
2017-09-24T01:09:44.440Z,101.80
2017-09-24T01:12:11.947Z,92.67
2017-09-24T01:14:39.483Z,91.67
2017-09-24T01:17:06.979Z,73.33
2017-09-24T01:19:34.482Z,77.73
2017-09-24T01:22:02.296Z,82.63
2017-09-24T01:24:29.797Z,77.77
2017-09-24T01:26:57.316Z,77.80
2017-09-24T01:29:26.435Z,89.60
2017-09-24T01:31:54.735Z,74.50
2017-09-24T01:34:22.239Z,76.90
2017-09-24T01:36:49.749Z,77.47
2017-09-24T01:39:17.267Z,81.93
2017-09-24T01:41:44.772Z,72.47
2017-09-24T01:44:12.289Z,73.87
2017-09-24T01:46:40.565Z,90.80
2017-09-24T01:49:09.153Z,81.77
2017-09-24T01:51:37.427Z,71.33
2017-09-24T01:54:05.713Z,74.83
2017-09-24T01:56:34.000Z,73.60
2017-09-24T01:59:01.500Z,82.20
2017-09-24T02:01:29.019Z,86.27
2017-09-24T02:03:56.518Z,75.70
2017-09-24T02:06:24.047Z,79.27
2017-09-24T02:08:51.543Z,82.27
2017-09-24T02:11:19.050Z,92.17
2017-09-24T02:13:46.876Z,80.90
2017-09-24T02:16:14.370Z,89.47
2017-09-24T02:18:41.886Z,80.73
2017-09-24T02:21:09.396Z,89.83
2017-09-24T02:23:36.931Z,73.70
2017-09-24T02:26:05.194Z,87.53
2017-09-24T02:28:32.696Z,84.03
2017-09-24T02:31:00.216Z,76.73
2017-09-24T02:33:28.483Z,84.80
2017-09-24T02:35:56.766Z,83.40
2017-09-24T02:38:25.031Z,65.50
2017-09-24T02:40:52.558Z,74.17
2017-09-24T02:43:20.063Z,73.90
2017-09-24T02:45:48.336Z,82.10
2017-09-24T02:48:16.624Z,88.83
2017-09-24T02:50:44.887Z,80.30
2017-09-24T02:53:13.184Z,98.53
2017-09-24T02:55:40.688Z,92.07
2017-09-24T02:58:08.227Z,83.20
2017-09-24T03:00:35.731Z,84.13
2017-09-24T03:03:03.231Z,79.27
2017-09-24T03:05:30.746Z,78.97
2017-09-24T03:07:58.264Z,68.27
2017-09-24T03:10:25.782Z,70.00
2017-09-24T03:12:54.051Z,70.93
2017-09-24T03:15:22.351Z,71.30
2017-09-24T03:17:49.854Z,72.43
2017-09-24T03:20:17.355Z,81.87
2017-09-24T03:22:44.894Z,83.43
2017-09-24T03:25:13.159Z,79.10
2017-09-24T03:27:40.712Z,94.50
2017-09-24T03:30:08.275Z,100.30
2017-09-24T03:32:35.811Z,85.53
2017-09-24T03:35:03.350Z,98.20
2017-09-24T03:37:30.861Z,87.03
2017-09-24T03:39:59.151Z,96.10
2017-09-24T03:42:27.419Z,106.37
2017-09-24T03:44:55.703Z,82.57
2017-09-24T03:47:23.981Z,106.57
2017-09-24T03:49:52.267Z,99.47
2017-09-24T03:52:19.766Z,104.33
2017-09-24T03:54:47.303Z,97.13
2017-09-24T03:57:14.807Z,113.27
2017-09-24T03:59:42.335Z,105.07
2017-09-24T04:02:10.608Z,112.57
2017-09-24T04:04:38.147Z,106.07
2017-09-24T04:07:05.655Z,101.30
2017-09-24T04:09:33.164Z,108.83
2017-09-24T04:12:00.692Z,105.87
2017-09-24T04:14:29.309Z,108.53
2017-09-24T04:16:56.827Z,99.73
2017-09-24T04:19:25.107Z,114.73
2017-09-24T04:21:53.402Z,112.90
2017-09-24T04:24:20.904Z,125.07
2017-09-24T04:26:48.423Z,115.97
2017-09-24T04:29:15.944Z,109.57
2017-09-24T04:31:43.453Z,114.50
2017-09-24T04:34:10.972Z,106.77
2017-09-24T04:36:39.235Z,131.47
2017-09-24T04:39:06.772Z,125.23
2017-09-24T04:41:34.285Z,128.23
2017-09-24T04:44:02.168Z,114.30
2017-09-24T04:46:29.695Z,124.63
2017-09-24T04:48:57.967Z,116.87
2017-09-24T04:51:26.251Z,123.97
2017-09-24T04:53:54.519Z,124.70
2017-09-24T04:56:22.817Z,115.23
2017-09-24T04:58:50.342Z,119.70
2017-09-24T05:01:17.885Z,154.93
2017-09-24T05:03:46.356Z,135.23
2017-09-24T05:06:13.981Z,123.90
2017-09-24T05:08:42.758Z,118.23
2017-09-24T05:11:10.291Z,109.30
2017-09-24T05:13:38.567Z,121.07
2017-09-24T05:16:06.071Z,135.57
2017-09-24T05:18:33.886Z,133.97
2017-09-24T05:21:01.391Z,119.80
2017-09-24T05:23:28.911Z,125.63
2017-09-24T05:25:57.180Z,132.30
2017-09-24T05:28:24.715Z,137.07
2017-09-24T05:30:52.228Z,141.50
2017-09-24T05:33:19.736Z,130.03
2017-09-24T05:35:47.267Z,157.23
2017-09-24T05:38:14.779Z,138.67
2017-09-24T05:40:43.072Z,139.87
2017-09-24T05:43:11.340Z,139.40
2017-09-24T05:45:39.644Z,139.80
2017-09-24T05:48:07.151Z,155.53
2017-09-24T05:50:34.656Z,129.20
2017-09-24T05:53:02.183Z,130.07
2017-09-24T05:55:30.452Z,127.80
2017-09-24T05:57:58.786Z,131.57
2017-09-24T06:00:26.279Z,132.17
2017-09-24T06:02:53.826Z,127.13
2017-09-24T06:05:21.331Z,122.13
2017-09-24T06:07:48.827Z,109.83
2017-09-24T06:10:16.351Z,111.10
2017-09-24T06:12:43.863Z,112.77
2017-09-24T06:15:11.398Z,102.13
2017-09-24T06:17:39.676Z,105.37
2017-09-24T06:20:07.184Z,113.53
2017-09-24T06:22:35.475Z,107.23
2017-09-24T06:25:02.995Z,122.57
2017-09-24T06:27:30.552Z,110.57
2017-09-24T06:29:58.064Z,113.00
2017-09-24T06:32:25.576Z,112.83
2017-09-24T06:34:53.107Z,105.57
2017-09-24T06:37:20.685Z,123.90
2017-09-24T06:39:48.222Z,116.10
2017-09-24T06:42:15.723Z,116.73
2017-09-24T06:44:44.003Z,119.43
2017-09-24T06:47:12.296Z,115.90
2017-09-24T06:49:39.807Z,101.23
2017-09-24T06:52:07.347Z,118.77
2017-09-24T06:54:34.859Z,117.77
2017-09-24T06:57:03.130Z,105.20
2017-09-24T06:59:31.415Z,97.40
2017-09-24T07:01:59.682Z,98.57
2017-09-24T07:04:27.989Z,81.63
2017-09-24T07:06:55.505Z,81.30
2017-09-24T07:09:23.020Z,82.13
2017-09-24T07:11:50.543Z,91.33
2017-09-24T07:14:18.050Z,83.23
2017-09-24T07:16:45.592Z,99.27
2017-09-24T07:19:13.098Z,98.10
2017-09-24T07:21:41.371Z,90.77
2017-09-24T07:24:08.975Z,83.80
2017-09-24T07:26:36.841Z,86.40
2017-09-24T07:29:04.381Z,75.07
2017-09-24T07:31:31.891Z,60.33
2017-09-24T07:33:59.399Z,66.60
2017-09-24T07:36:27.281Z,48.10
2017-09-24T07:38:54.783Z,59.93
2017-09-24T07:41:22.323Z,56.33
2017-09-24T07:43:49.827Z,47.53
2017-09-24T07:46:18.095Z,51.57
2017-09-24T07:48:46.387Z,44.83
2017-09-24T07:51:14.669Z,52.33
2017-09-24T07:53:42.195Z,49.60
2017-09-24T07:56:09.699Z,42.33
2017-09-24T07:58:37.203Z,41.63
2017-09-24T08:01:04.727Z,46.20
2017-09-24T08:03:32.259Z,50.10
2017-09-24T08:05:59.813Z,48.73
2017-09-24T08:08:27.327Z,39.17
2017-09-24T08:10:54.835Z,45.30
2017-09-24T08:13:22.355Z,48.57
2017-09-24T08:15:49.859Z,39.70
2017-09-24T08:18:17.398Z,42.30
2017-09-24T08:20:45.674Z,38.33
2017-09-24T08:23:13.947Z,34.93
2017-09-24T08:25:42.239Z,41.43
2017-09-24T08:28:09.752Z,32.23
2017-09-24T08:30:37.291Z,34.00
2017-09-24T08:33:04.795Z,31.87
2017-09-24T08:35:33.067Z,30.33
2017-09-24T08:38:01.588Z,30.37
2017-09-24T08:40:30.421Z,30.43
2017-09-24T08:42:58.714Z,32.13
2017-09-24T08:45:27.040Z,37.63
2017-09-24T08:47:54.542Z,28.03
2017-09-24T08:50:22.823Z,26.57
2017-09-24T08:52:51.125Z,28.70
2017-09-24T08:55:18.652Z,31.23
2017-09-24T08:57:46.158Z,29.20
2017-09-24T09:00:13.686Z,27.20
2017-09-24T09:02:41.959Z,25.43
2017-09-24T09:05:10.236Z,23.77
2017-09-24T09:07:38.523Z,23.30
2017-09-24T09:10:06.043Z,27.40
2017-09-24T09:12:33.593Z,20.53
2017-09-24T09:15:01.136Z,21.37
2017-09-24T09:17:28.685Z,28.80
2017-09-24T09:19:56.212Z,23.13
2017-09-24T09:22:24.511Z,22.17
2017-09-24T09:24:52.023Z,21.13
2017-09-24T09:27:19.540Z,21.93
2017-09-24T09:29:47.062Z,19.87
2017-09-24T09:32:15.335Z,20.73
2017-09-24T09:34:55.436Z,22.57
2017-09-24T09:37:22.945Z,20.37
2017-09-24T09:39:51.219Z,19.10
2017-09-24T09:42:19.507Z,21.57
2017-09-24T09:44:50.888Z,18.67
2017-09-24T09:47:26.195Z,16.77
2017-09-24T09:49:53.711Z,20.77
2017-09-24T09:52:21.250Z,21.37
2017-09-24T09:54:48.779Z,16.90
2017-09-24T09:57:16.287Z,16.87
2017-09-24T09:59:43.805Z,16.53
2017-09-24T10:02:11.334Z,19.20
2017-09-24T10:04:39.619Z,16.70
2017-09-24T10:07:19.750Z,20.10
2017-09-24T10:09:59.875Z,15.80
2017-09-24T10:12:27.391Z,17.23
2017-09-24T10:14:54.904Z,19.40
2017-09-24T10:17:22.411Z,18.80
2017-09-24T10:19:49.940Z,19.63
2017-09-24T10:22:18.212Z,25.90
2017-09-24T10:24:46.511Z,22.10
2017-09-24T10:27:14.019Z,18.83
2017-09-24T10:29:41.544Z,22.10
2017-09-24T10:32:09.072Z,23.90
2017-09-24T10:34:37.335Z,17.77
2017-09-24T10:37:04.864Z,18.50
2017-09-24T10:39:32.370Z,18.50
2017-09-24T10:42:00.648Z,21.43
2017-09-24T10:44:28.951Z,18.17
2017-09-24T10:46:56.463Z,21.53
2017-09-24T10:49:23.994Z,22.13
2017-09-24T10:51:51.524Z,22.87
2017-09-24T10:54:19.039Z,20.00
2017-09-24T10:56:46.567Z,20.33
2017-09-24T10:59:14.092Z,19.30
2017-09-24T11:01:41.600Z,22.80
2017-09-24T11:04:09.122Z,24.50
2017-09-24T11:06:36.647Z,23.87
2017-09-24T11:09:04.927Z,25.40
2017-09-24T11:11:33.217Z,19.47
2017-09-24T11:14:00.727Z,19.67
2017-09-24T11:16:28.261Z,21.00
2017-09-24T11:18:55.762Z,22.70
2017-09-24T11:21:23.274Z,26.77
2017-09-24T11:23:50.794Z,22.37
2017-09-24T11:26:19.082Z,25.03
2017-09-24T11:28:46.668Z,21.43
2017-09-24T11:31:14.445Z,24.77
2017-09-24T11:33:42.021Z,21.60
2017-09-24T11:36:09.611Z,22.13
2017-09-24T11:38:37.202Z,25.10
2017-09-24T11:41:04.753Z,23.33
2017-09-24T11:43:32.293Z,24.27
2017-09-24T11:45:59.885Z,21.90
2017-09-24T11:48:27.423Z,17.13
2017-09-24T11:50:54.968Z,17.67
2017-09-24T11:53:23.296Z,16.40
2017-09-24T11:55:51.583Z,17.90
2017-09-24T11:58:19.113Z,18.20
2017-09-24T12:00:46.756Z,13.90
2017-09-24T12:03:14.273Z,17.60
2017-09-24T12:05:41.906Z,15.70
2017-09-24T12:08:09.454Z,19.00
2017-09-24T12:10:37.304Z,17.33
2017-09-24T12:13:04.959Z,14.23
2017-09-24T12:15:32.523Z,15.97
2017-09-24T12:18:00.421Z,18.43
2017-09-24T12:20:28.995Z,19.57
2017-09-24T12:22:56.616Z,20.50
2017-09-24T12:25:24.160Z,16.77
2017-09-24T12:27:51.681Z,14.50
2017-09-24T12:30:20.231Z,23.63
2017-09-24T12:32:47.797Z,22.70
2017-09-24T12:35:15.327Z,18.30
2017-09-24T12:37:43.599Z,16.83
2017-09-24T12:40:11.904Z,19.73
2017-09-24T12:42:39.410Z,27.63
2017-09-24T12:45:06.923Z,20.40
2017-09-24T12:47:34.447Z,21.90
2017-09-24T12:50:02.724Z,17.93
2017-09-24T12:52:31.028Z,22.40
2017-09-24T12:54:58.544Z,19.00
2017-09-24T12:57:26.055Z,16.17
2017-09-24T12:59:53.587Z,21.47
2017-09-24T13:02:21.917Z,19.13
2017-09-24T13:04:49.455Z,25.37
2017-09-24T13:07:17.821Z,18.30
2017-09-24T13:09:46.178Z,16.60
2017-09-24T13:12:14.467Z,17.30
2017-09-24T13:14:41.979Z,18.40
2017-09-24T13:17:09.524Z,17.90
2017-09-24T13:19:37.031Z,18.70
2017-09-24T13:22:05.308Z,19.50
2017-09-24T13:24:33.598Z,20.80
2017-09-24T13:27:01.111Z,18.60
2017-09-24T13:29:28.659Z,12.80
2017-09-24T13:31:56.159Z,11.33
2017-09-24T13:34:24.428Z,8.30
2017-09-24T13:36:52.737Z,8.07
2017-09-24T13:39:20.512Z,10.90
2017-09-24T13:41:48.763Z,10.17
2017-09-24T13:44:16.283Z,11.30
2017-09-24T13:46:45.096Z,8.03
2017-09-24T13:49:13.374Z,8.37
2017-09-24T13:51:41.664Z,7.37
2017-09-24T13:54:09.186Z,14.03
2017-09-24T13:56:36.695Z,11.30
2017-09-24T13:59:04.196Z,11.97
2017-09-24T14:01:31.717Z,7.90
2017-09-24T14:03:59.215Z,9.00
2017-09-24T14:06:26.744Z,12.10
2017-09-24T14:08:54.247Z,8.40
2017-09-24T14:11:22.511Z,9.33
2017-09-24T14:13:50.032Z,12.40
2017-09-24T14:16:17.833Z,11.43
2017-09-24T14:18:45.367Z,12.63
2017-09-24T14:21:12.872Z,13.50
2017-09-24T14:23:41.143Z,14.20
2017-09-24T14:26:09.431Z,15.73
2017-09-24T14:28:36.939Z,10.13
2017-09-24T14:31:04.465Z,23.70
2017-09-24T14:33:31.971Z,11.93
2017-09-24T14:35:59.470Z,11.30
2017-09-24T14:38:26.995Z,9.57
2017-09-24T14:40:54.496Z,11.57
2017-09-24T14:43:22.023Z,17.30
2017-09-24T14:45:50.293Z,12.43
2017-09-24T14:48:18.571Z,11.67
2017-09-24T14:50:46.862Z,11.47
2017-09-24T14:53:15.139Z,16.73
2017-09-24T14:55:43.427Z,12.80
2017-09-24T14:58:10.927Z,11.40
2017-09-24T15:00:38.448Z,12.90
2017-09-24T15:03:05.988Z,13.00
2017-09-24T15:05:34.262Z,11.77
2017-09-24T15:08:01.794Z,9.33
2017-09-24T15:10:29.337Z,11.37
2017-09-24T15:12:56.903Z,13.83
2017-09-24T15:15:24.743Z,10.60
2017-09-24T15:17:52.252Z,10.47
2017-09-24T15:20:20.538Z,11.17
2017-09-24T15:22:48.811Z,10.67
2017-09-24T15:25:17.099Z,11.27
2017-09-24T15:27:44.603Z,10.40
2017-09-24T15:30:12.127Z,11.77
2017-09-24T15:32:39.631Z,12.50
2017-09-24T15:35:07.487Z,13.73
2017-09-24T15:37:34.999Z,11.33
2017-09-24T15:40:02.502Z,10.97
2017-09-24T15:42:30.026Z,11.20
2017-09-24T15:44:57.532Z,11.10
2017-09-24T15:47:25.039Z,13.57
2017-09-24T15:49:52.563Z,11.00
2017-09-24T15:52:20.062Z,9.70
2017-09-24T15:54:47.616Z,11.83
2017-09-24T15:57:15.868Z,12.37
2017-09-24T15:59:44.143Z,12.37
2017-09-24T16:02:12.423Z,10.97
2017-09-24T16:04:40.701Z,11.17
2017-09-24T16:07:08.990Z,11.90
2017-09-24T16:09:36.500Z,17.37
2017-09-24T16:12:04.040Z,19.27
2017-09-24T16:14:31.535Z,10.77
2017-09-24T16:16:59.038Z,14.83
2017-09-24T16:19:26.555Z,14.90
2017-09-24T16:21:54.827Z,10.47
2017-09-24T16:24:22.355Z,14.60
2017-09-24T16:26:49.850Z,11.03
2017-09-24T16:29:18.120Z,14.33
2017-09-24T16:31:46.415Z,10.20
2017-09-24T16:34:14.700Z,15.63
2017-09-24T16:36:42.228Z,10.97
2017-09-24T16:39:09.779Z,12.43
2017-09-24T16:41:37.372Z,16.30
2017-09-24T16:44:05.005Z,14.93
2017-09-24T16:46:33.559Z,17.03
2017-09-24T16:49:01.167Z,11.60
2017-09-24T16:51:28.958Z,16.33
2017-09-24T16:53:56.515Z,14.50
2017-09-24T16:56:24.079Z,11.40
2017-09-24T16:58:51.766Z,16.23
2017-09-24T17:01:20.237Z,11.50
2017-09-24T17:03:47.758Z,10.80
2017-09-24T17:06:15.315Z,10.90
2017-09-24T17:08:43.583Z,10.83
2017-09-24T17:11:12.444Z,9.73
2017-09-24T17:13:39.939Z,9.83
2017-09-24T17:16:08.202Z,9.93
2017-09-24T17:18:36.491Z,23.33
2017-09-24T17:21:04.767Z,26.73
2017-09-24T17:23:33.068Z,14.30
2017-09-24T17:26:00.574Z,22.60
2017-09-24T17:28:28.099Z,17.50
2017-09-24T17:30:55.611Z,40.43
2017-09-24T17:33:23.891Z,27.93
2017-09-24T17:35:52.187Z,26.87
2017-09-24T17:38:19.699Z,20.77
2017-09-24T17:40:47.226Z,42.10
2017-09-24T17:43:14.731Z,44.40
2017-09-24T17:45:43.024Z,26.10
2017-09-24T17:48:10.535Z,22.83
2017-09-24T17:50:38.062Z,33.70
2017-09-24T17:53:05.591Z,24.10
2017-09-24T17:55:33.873Z,16.20
2017-09-24T17:58:02.170Z,15.20
2017-09-24T18:00:29.680Z,20.67
2017-09-24T18:02:57.207Z,38.17
2017-09-24T18:05:24.715Z,29.53
2017-09-24T18:07:53.023Z,28.73
2017-09-24T18:10:20.625Z,27.00
2017-09-24T18:12:48.228Z,29.53
2017-09-24T18:15:15.985Z,19.60
2017-09-24T18:17:43.764Z,15.17
2017-09-24T18:20:12.785Z,12.63
2017-09-24T18:22:40.298Z,22.53
2017-09-24T18:25:09.429Z,38.00
2017-09-24T18:27:36.936Z,21.50
2017-09-24T18:30:04.446Z,14.53
2017-09-24T18:32:31.975Z,15.20
2017-09-24T18:34:59.483Z,16.33
2017-09-24T18:37:27.010Z,26.43
2017-09-24T18:39:54.515Z,31.67
2017-09-24T18:42:22.056Z,20.80
2017-09-24T18:44:49.558Z,17.27
2017-09-24T18:47:17.831Z,17.57
2017-09-24T18:49:46.119Z,23.30
2017-09-24T18:52:13.627Z,20.77
2017-09-24T18:54:41.147Z,27.07
2017-09-24T18:57:08.651Z,38.77
2017-09-24T18:59:36.183Z,31.50
2017-09-24T19:02:03.690Z,26.50
2017-09-24T19:04:31.964Z,20.63
2017-09-24T19:07:00.257Z,18.63
2017-09-24T19:09:28.529Z,16.83
2017-09-24T19:11:56.816Z,17.50
2017-09-24T19:14:24.324Z,17.30
2017-09-24T19:16:52.203Z,18.00
2017-09-24T19:19:19.702Z,18.10
2017-09-24T19:21:47.210Z,20.13
2017-09-24T19:24:14.736Z,27.77
2017-09-24T19:26:42.248Z,41.57
2017-09-24T19:29:09.779Z,24.63
2017-09-24T19:31:37.287Z,31.30
2017-09-24T19:34:04.815Z,66.10
2017-09-24T19:36:32.334Z,51.00
2017-09-24T19:38:59.860Z,39.93
2017-09-24T19:41:27.372Z,29.80
2017-09-24T19:43:54.898Z,23.60
2017-09-24T19:46:22.399Z,19.17
2017-09-24T19:48:49.923Z,17.83
2017-09-24T19:51:17.427Z,15.80
2017-09-24T19:53:44.953Z,18.90
2017-09-24T19:56:12.463Z,21.00
2017-09-24T19:58:40.051Z,19.03
2017-09-24T20:01:08.872Z,22.97
2017-09-24T20:03:36.422Z,18.80
2017-09-24T20:06:04.043Z,19.33
2017-09-24T20:08:34.331Z,21.60
2017-09-24T20:11:01.888Z,23.77
2017-09-24T20:13:29.394Z,23.83
2017-09-24T20:15:56.920Z,27.83
2017-09-24T20:18:25.200Z,23.43
2017-09-24T20:20:53.492Z,21.93
2017-09-24T20:23:21.003Z,24.40
2017-09-24T20:25:48.531Z,25.77
2017-09-24T20:28:16.034Z,24.13
2017-09-24T20:30:44.409Z,24.80
2017-09-24T20:33:11.915Z,25.70
2017-09-24T20:35:39.512Z,28.17
2017-09-24T20:38:07.018Z,26.97
2017-09-24T20:40:34.619Z,26.10
2017-09-24T20:43:02.133Z,25.03
2017-09-24T20:45:29.660Z,25.40
2017-09-24T20:47:57.177Z,29.10
2017-09-24T20:50:24.791Z,29.43
2017-09-24T20:52:53.067Z,27.53
2017-09-24T20:55:21.355Z,28.87
2017-09-24T20:57:49.628Z,32.33
2017-09-24T21:00:18.187Z,27.10
2017-09-24T21:02:45.691Z,31.17
2017-09-24T21:05:13.239Z,29.30
2017-09-24T21:07:40.734Z,24.63
2017-09-24T21:10:08.232Z,21.70
2017-09-24T21:12:36.516Z,26.27
2017-09-24T21:15:04.783Z,23.83
2017-09-24T21:17:33.064Z,23.80
2017-09-24T21:20:01.339Z,24.30
2017-09-24T21:22:29.626Z,25.67
2017-09-24T21:24:57.895Z,24.83
2017-09-24T21:27:26.180Z,26.33
2017-09-24T21:29:54.448Z,29.07
2017-09-24T21:32:22.731Z,31.20
2017-09-24T21:34:50.997Z,31.97
2017-09-24T21:37:19.283Z,31.97
2017-09-24T21:39:47.551Z,30.77
2017-09-24T21:42:15.835Z,32.20
2017-09-24T21:44:44.114Z,29.13
2017-09-24T21:47:12.404Z,35.50
2017-09-24T21:49:39.948Z,30.10
2017-09-24T21:52:08.210Z,27.10
2017-09-24T21:54:36.567Z,36.00
2017-09-24T21:57:04.115Z,29.53
2017-09-24T21:59:31.627Z,31.97
2017-09-24T22:01:59.153Z,34.10
2017-09-24T22:04:26.660Z,25.03
2017-09-24T22:06:54.195Z,27.93
2017-09-24T22:09:22.464Z,28.07
2017-09-24T22:11:50.728Z,28.00
2017-09-24T22:14:18.247Z,36.50
2017-09-24T22:16:45.751Z,28.93
2017-09-24T22:19:14.031Z,31.80
2017-09-24T22:21:42.303Z,29.60
2017-09-24T22:24:10.587Z,26.93
2017-09-24T22:26:38.859Z,29.90
2017-09-24T22:29:07.148Z,31.40
2017-09-24T22:31:34.654Z,31.07
2017-09-24T22:34:02.172Z,29.90
2017-09-24T22:36:29.679Z,26.53
2017-09-24T22:38:57.199Z,27.47
2017-09-24T22:41:24.703Z,37.60
2017-09-24T22:43:52.999Z,26.57
2017-09-24T22:46:21.267Z,34.00
2017-09-24T22:48:49.562Z,27.43
2017-09-24T22:51:17.832Z,28.93
2017-09-24T22:53:46.127Z,30.40
2017-09-24T22:56:13.627Z,28.80
2017-09-24T22:58:41.144Z,29.23
2017-09-24T23:01:08.647Z,32.37
2017-09-24T23:03:36.167Z,38.87
2017-09-24T23:06:03.673Z,33.00
2017-09-24T23:08:31.215Z,30.90
2017-09-24T23:10:58.715Z,31.70
2017-09-24T23:13:26.987Z,32.80
2017-09-24T23:15:55.270Z,39.03
2017-09-24T23:18:23.545Z,35.07
2017-09-24T23:20:51.092Z,31.23
2017-09-24T23:23:19.479Z,29.80
2017-09-24T23:25:47.795Z,35.70
2017-09-24T23:28:15.301Z,43.37
2017-09-24T23:30:42.821Z,41.10
2017-09-24T23:33:10.324Z,38.97
2017-09-24T23:35:38.607Z,44.00
2017-09-24T23:38:06.875Z,38.00
2017-09-24T23:40:35.161Z,36.67
2017-09-24T23:43:03.427Z,35.80
2017-09-24T23:45:31.711Z,36.00
2017-09-24T23:47:59.975Z,37.43
2017-09-24T23:50:28.268Z,38.50
2017-09-24T23:52:55.776Z,36.50
2017-09-24T23:55:23.297Z,37.10
2017-09-24T23:57:50.803Z,34.87
